createdAt,value
2023-03-17T00:02:07.195Z,505.00
2023-03-17T00:06:06.189Z,504.00
2023-03-17T00:10:06.372Z,505.00
2023-03-17T00:14:07.267Z,504.00
2023-03-17T00:18:06.804Z,505.00
2023-03-17T00:22:06.795Z,506.00
2023-03-17T00:26:06.753Z,508.00
2023-03-17T00:30:07.204Z,503.00
2023-03-17T00:34:06.993Z,506.00
2023-03-17T00:38:07.085Z,507.00
2023-03-17T00:42:08.180Z,507.00
2023-03-17T00:46:07.268Z,509.00
2023-03-17T00:50:07.329Z,504.00
2023-03-17T00:54:07.492Z,506.00
2023-03-17T00:58:07.579Z,508.00
2023-03-17T01:02:07.769Z,507.00
2023-03-17T01:06:07.742Z,507.00
2023-03-17T01:10:07.880Z,508.00
2023-03-17T01:14:08.025Z,507.00
2023-03-17T01:18:08.237Z,501.00
2023-03-17T01:22:08.172Z,504.00
2023-03-17T01:26:08.264Z,511.00
2023-03-17T01:30:08.470Z,503.00
2023-03-17T01:34:08.628Z,502.00
2023-03-17T01:38:08.691Z,506.00
2023-03-17T01:42:08.835Z,505.00
2023-03-17T01:46:08.856Z,505.00
2023-03-17T01:50:08.924Z,507.00
2023-03-17T01:54:09.082Z,509.00
2023-03-17T01:58:09.149Z,507.00
2023-03-17T02:02:09.264Z,506.00
2023-03-17T02:06:09.388Z,505.00
2023-03-17T02:10:09.466Z,505.00
2023-03-17T02:14:09.557Z,510.00
2023-03-17T02:18:09.641Z,508.00
2023-03-17T02:22:09.801Z,505.00
2023-03-17T02:26:09.932Z,505.00
2023-03-17T02:30:09.982Z,506.00
2023-03-17T02:34:10.133Z,502.00
2023-03-17T02:38:10.236Z,505.00
2023-03-17T02:42:10.369Z,506.00
2023-03-17T02:46:10.488Z,505.00
2023-03-17T02:50:10.640Z,506.00
2023-03-17T02:54:10.761Z,508.00
2023-03-17T02:58:10.775Z,511.00
2023-03-17T03:02:11.051Z,504.00
2023-03-17T03:06:11.045Z,512.00
2023-03-17T03:10:11.117Z,509.00
2023-03-17T03:14:11.226Z,501.00
2023-03-17T03:18:11.358Z,506.00
2023-03-17T03:22:11.452Z,506.00
2023-03-17T03:26:11.539Z,501.00
2023-03-17T03:30:11.694Z,503.00
2023-03-17T03:34:11.773Z,508.00
2023-03-17T03:38:11.893Z,503.00
2023-03-17T03:42:12.023Z,506.00
2023-03-17T03:46:12.114Z,505.00
2023-03-17T03:50:12.203Z,503.00
2023-03-17T03:54:12.289Z,505.00
2023-03-17T03:58:12.409Z,505.00
2023-03-17T04:02:12.532Z,506.00
2023-03-17T04:06:12.669Z,504.00
2023-03-17T04:10:12.730Z,503.00
2023-03-17T04:14:12.852Z,506.00
2023-03-17T04:18:12.995Z,503.00
2023-03-17T04:22:13.058Z,504.00
2023-03-17T04:26:13.139Z,506.00
2023-03-17T04:30:13.249Z,506.00
2023-03-17T04:34:13.335Z,505.00
2023-03-17T04:38:13.468Z,504.00
2023-03-17T04:42:13.539Z,507.00
2023-03-17T04:46:13.763Z,504.00
2023-03-17T04:50:13.882Z,501.00
2023-03-17T04:54:13.901Z,505.00
2023-03-17T04:58:29.539Z,504.00
2023-03-17T05:02:15.012Z,503.00
2023-03-17T05:06:13.949Z,509.00
2023-03-17T05:10:13.906Z,505.00
2023-03-17T05:14:14.018Z,506.00
2023-03-17T05:18:14.000Z,505.00
2023-03-17T05:22:14.840Z,507.00
2023-03-17T05:26:14.277Z,500.00
2023-03-17T05:30:14.379Z,502.00
2023-03-17T05:34:14.556Z,505.00
2023-03-17T05:38:14.622Z,506.00
2023-03-17T05:42:14.717Z,509.00
2023-03-17T05:46:14.923Z,507.00
2023-03-17T05:50:15.001Z,504.00
2023-03-17T05:54:15.101Z,505.00
2023-03-17T05:58:15.154Z,508.00
2023-03-17T06:02:15.288Z,510.00
2023-03-17T06:06:15.441Z,508.00
2023-03-17T06:10:15.592Z,506.00
2023-03-17T06:14:15.677Z,504.00
2023-03-17T06:18:15.736Z,505.00
2023-03-17T06:22:15.976Z,507.00
2023-03-17T06:26:15.987Z,503.00
2023-03-17T06:30:16.210Z,505.00
2023-03-17T06:34:16.218Z,502.00
2023-03-17T06:38:16.269Z,505.00
2023-03-17T06:42:16.689Z,507.00
2023-03-17T06:46:16.469Z,508.00
2023-03-17T06:50:16.475Z,504.00
2023-03-17T06:54:16.515Z,514.00
2023-03-17T06:58:16.866Z,500.00
2023-03-17T07:02:16.731Z,500.00
2023-03-17T07:06:17.220Z,500.00
2023-03-17T07:10:16.912Z,526.00
2023-03-17T07:14:17.045Z,521.00
2023-03-17T07:18:17.969Z,500.00
2023-03-17T07:22:17.457Z,502.00
2023-03-17T07:26:17.620Z,506.00
2023-03-17T07:30:17.586Z,504.00
2023-03-17T07:34:17.684Z,500.00
2023-03-17T07:38:17.733Z,507.00
2023-03-17T07:42:17.930Z,506.00
2023-03-17T07:46:18.263Z,513.00
2023-03-17T07:50:18.306Z,512.00
2023-03-17T07:54:18.236Z,506.00
2023-03-17T07:58:18.342Z,505.00
2023-03-17T08:02:18.606Z,507.00
2023-03-17T08:06:18.681Z,502.00
2023-03-17T08:10:18.860Z,512.00
2023-03-17T08:14:19.398Z,505.00
2023-03-17T08:18:19.032Z,509.00
2023-03-17T08:22:20.030Z,512.00
2023-03-17T08:26:19.363Z,521.00
2023-03-17T08:30:19.397Z,522.00
2023-03-17T08:34:20.594Z,596.00
2023-03-17T08:38:25.438Z,631.00
2023-03-17T08:42:19.618Z,653.00
2023-03-17T08:46:19.705Z,678.00
2023-03-17T08:50:19.569Z,641.00
2023-03-17T08:54:19.534Z,642.00
2023-03-17T08:58:21.341Z,633.00
2023-03-17T09:02:19.432Z,659.00
2023-03-17T09:06:19.532Z,649.00
2023-03-17T09:10:22.505Z,600.00
2023-03-17T09:14:19.592Z,595.00
2023-03-17T09:18:21.915Z,606.00
2023-03-17T09:22:19.478Z,618.00
2023-03-17T09:26:21.045Z,1306.00
2023-03-17T09:30:22.067Z,875.00
2023-03-17T09:34:21.952Z,841.00
2023-03-17T09:38:19.362Z,723.00
2023-03-17T09:42:19.272Z,682.00
2023-03-17T09:46:19.392Z,674.00
2023-03-17T09:50:20.466Z,647.00
2023-03-17T09:54:19.931Z,706.00
2023-03-17T09:58:20.943Z,690.00
2023-03-17T10:02:19.948Z,668.00
2023-03-17T10:06:19.136Z,659.00
2023-03-17T10:10:19.078Z,659.00
2023-03-17T10:14:19.045Z,663.00
2023-03-17T10:18:18.982Z,702.00
2023-03-17T10:22:18.910Z,663.00
2023-03-17T10:26:18.882Z,686.00
2023-03-17T10:30:18.964Z,735.00
2023-03-17T10:34:18.850Z,696.00
2023-03-17T10:38:18.991Z,657.00
2023-03-17T10:42:20.486Z,2458.00
2023-03-17T10:46:19.168Z,2819.00
2023-03-17T10:50:19.357Z,2378.00
2023-03-17T10:54:19.333Z,2187.00
2023-03-17T10:58:19.362Z,1974.00
2023-03-17T11:02:19.511Z,1895.00
2023-03-17T11:06:19.307Z,1753.00
2023-03-17T11:10:19.455Z,1738.00
2023-03-17T11:14:19.539Z,1669.00
2023-03-17T11:18:19.534Z,1615.00
2023-03-17T11:22:19.676Z,1549.00
2023-03-17T11:26:19.972Z,1466.00
2023-03-17T11:30:20.003Z,1408.00
2023-03-17T11:34:19.727Z,1349.00
2023-03-17T11:38:19.955Z,1293.00
2023-03-17T11:42:19.721Z,1259.00
2023-03-17T11:46:20.578Z,1214.00
2023-03-17T11:50:19.667Z,1187.00
2023-03-17T11:54:19.647Z,1152.00
2023-03-17T11:58:19.637Z,1128.00
2023-03-17T12:02:20.508Z,1096.00
2023-03-17T12:06:20.013Z,1070.00
2023-03-17T12:10:20.072Z,1056.00
2023-03-17T12:14:20.350Z,1025.00
2023-03-17T12:18:20.355Z,1006.00
2023-03-17T12:22:20.499Z,988.00
2023-03-17T12:26:20.571Z,949.00
2023-03-17T12:30:20.740Z,933.00
2023-03-17T12:34:20.802Z,908.00
2023-03-17T12:38:21.033Z,892.00
2023-03-17T12:42:21.106Z,863.00
2023-03-17T12:46:21.342Z,858.00
2023-03-17T12:50:21.438Z,843.00
2023-03-17T12:54:21.524Z,832.00
2023-03-17T12:58:21.719Z,821.00
2023-03-17T13:02:21.863Z,799.00
2023-03-17T13:06:22.049Z,794.00
2023-03-17T13:10:22.278Z,778.00
2023-03-17T13:14:22.424Z,764.00
2023-03-17T13:18:22.650Z,755.00
2023-03-17T13:22:22.815Z,660.00
2023-03-17T13:26:23.047Z,655.00
2023-03-17T13:30:23.261Z,644.00
2023-03-17T13:34:23.419Z,626.00
2023-03-17T13:38:23.646Z,594.00
2023-03-17T13:42:23.830Z,587.00
2023-03-17T13:46:24.015Z,591.00
2023-03-17T13:50:24.194Z,594.00
2023-03-17T13:54:24.455Z,592.00
2023-03-17T13:58:24.546Z,595.00
2023-03-17T14:02:24.823Z,592.00
2023-03-17T14:06:25.006Z,592.00
2023-03-17T14:10:25.195Z,593.00
2023-03-17T14:14:32.840Z,590.00
2023-03-17T14:18:26.357Z,589.00
2023-03-17T14:22:25.361Z,587.00
2023-03-17T14:26:26.002Z,587.00
2023-03-17T14:30:25.561Z,588.00
2023-03-17T14:34:25.483Z,584.00
2023-03-17T14:38:25.450Z,587.00
2023-03-17T14:42:25.413Z,584.00
2023-03-17T14:46:25.458Z,580.00
2023-03-17T14:50:25.329Z,583.00
2023-03-17T14:54:25.295Z,583.00
2023-03-17T14:58:25.270Z,583.00
2023-03-17T15:02:25.210Z,578.00
2023-03-17T15:06:25.368Z,576.00
2023-03-17T15:10:25.326Z,578.00
2023-03-17T15:14:25.253Z,577.00
2023-03-17T15:18:25.219Z,573.00
2023-03-17T15:22:25.210Z,575.00
2023-03-17T15:26:25.164Z,568.00
2023-03-17T15:30:27.387Z,571.00
2023-03-17T15:34:25.175Z,571.00
2023-03-17T15:38:25.059Z,562.00
2023-03-17T15:42:25.047Z,561.00
2023-03-17T15:46:25.058Z,564.00
2023-03-17T15:50:25.014Z,565.00
2023-03-17T15:54:24.894Z,557.00
2023-03-17T15:58:24.852Z,557.00
2023-03-17T16:02:24.825Z,559.00
2023-03-17T16:07:31.182Z,500.00
2023-03-17T16:11:31.069Z,505.00
2023-03-17T16:15:31.051Z,504.00
2023-03-17T16:19:30.987Z,506.00
2023-03-17T16:23:30.977Z,502.00
2023-03-17T16:27:31.418Z,502.00
2023-03-17T16:31:30.988Z,508.00
2023-03-17T16:35:30.934Z,508.00
2023-03-17T16:39:30.849Z,503.00
2023-03-17T16:43:30.934Z,507.00
2023-03-17T16:47:30.790Z,509.00
2023-03-17T16:51:30.702Z,507.00
2023-03-17T16:55:30.760Z,503.00
2023-03-17T16:59:30.707Z,507.00
2023-03-17T17:03:30.704Z,508.00
2023-03-17T17:07:30.796Z,506.00
2023-03-17T17:11:30.928Z,500.00
2023-03-17T17:15:31.107Z,507.00
2023-03-17T17:19:31.281Z,505.00
2023-03-17T17:23:31.461Z,508.00
2023-03-17T17:27:31.666Z,513.00
2023-03-17T17:31:31.816Z,511.00
2023-03-17T17:35:32.845Z,507.00
2023-03-17T17:39:32.213Z,506.00
2023-03-17T17:43:32.502Z,511.00
2023-03-17T17:47:32.547Z,507.00
2023-03-17T17:51:32.851Z,506.00
2023-03-17T17:55:32.981Z,507.00
2023-03-17T17:59:33.203Z,507.00
2023-03-17T18:03:33.409Z,504.00
2023-03-17T18:07:33.728Z,504.00
2023-03-17T18:11:33.842Z,509.00
2023-03-17T18:15:34.120Z,508.00
2023-03-17T18:19:34.043Z,503.00
2023-03-17T18:23:34.033Z,507.00
2023-03-17T18:27:33.990Z,507.00
2023-03-17T18:31:34.070Z,508.00
2023-03-17T18:35:33.878Z,505.00
2023-03-17T18:39:33.853Z,502.00
2023-03-17T18:43:33.862Z,508.00
2023-03-17T18:47:33.827Z,510.00
2023-03-17T18:51:33.885Z,511.00
2023-03-17T18:55:33.909Z,509.00
2023-03-17T18:59:34.022Z,510.00
2023-03-17T19:03:34.217Z,512.00
2023-03-17T19:07:34.159Z,511.00
2023-03-17T19:11:34.100Z,509.00
2023-03-17T19:15:34.190Z,505.00
2023-03-17T19:19:34.154Z,510.00
2023-03-17T19:23:34.048Z,505.00
2023-03-17T19:27:33.972Z,503.00
2023-03-17T19:31:33.943Z,505.00
2023-03-17T19:35:33.942Z,503.00
2023-03-17T19:39:33.894Z,511.00
2023-03-17T19:43:40.879Z,509.00
2023-03-17T19:47:34.799Z,509.00
2023-03-17T19:51:33.798Z,510.00
2023-03-17T19:55:33.832Z,501.00
2023-03-17T19:59:33.745Z,506.00
2023-03-17T20:03:33.661Z,507.00
2023-03-17T20:07:33.660Z,508.00
2023-03-17T20:11:33.568Z,507.00
2023-03-17T20:15:33.576Z,508.00
2023-03-17T20:19:33.563Z,507.00
2023-03-17T20:23:33.479Z,504.00
2023-03-17T20:27:33.459Z,506.00
2023-03-17T20:31:33.473Z,505.00
2023-03-17T20:35:33.439Z,506.00
2023-03-17T20:39:33.492Z,509.00
2023-03-17T20:43:33.346Z,508.00
2023-03-17T20:47:33.270Z,511.00
2023-03-17T20:51:33.279Z,507.00
2023-03-17T20:55:33.468Z,501.00
2023-03-17T20:59:33.220Z,510.00
2023-03-17T21:03:33.148Z,505.00
2023-03-17T21:07:33.237Z,510.00
2023-03-17T21:11:33.099Z,506.00
2023-03-17T21:15:33.125Z,509.00
2023-03-17T21:19:33.120Z,506.00
2023-03-17T21:23:33.016Z,509.00
2023-03-17T21:27:32.978Z,510.00
2023-03-17T21:31:33.237Z,505.00
2023-03-17T21:35:32.958Z,508.00
2023-03-17T21:39:32.889Z,508.00
2023-03-17T21:43:32.824Z,506.00
2023-03-17T21:47:32.795Z,509.00
2023-03-17T21:51:32.771Z,508.00
2023-03-17T21:55:32.835Z,507.00
2023-03-17T21:59:32.830Z,510.00
2023-03-17T22:03:32.857Z,509.00
2023-03-17T22:07:32.662Z,503.00
2023-03-17T22:11:32.682Z,508.00
2023-03-17T22:15:33.532Z,506.00
2023-03-17T22:19:32.594Z,509.00
2023-03-17T22:23:32.548Z,512.00
2023-03-17T22:27:32.588Z,506.00
2023-03-17T22:31:32.771Z,505.00
2023-03-17T22:35:32.760Z,505.00
2023-03-17T22:39:32.844Z,505.00
2023-03-17T22:43:34.016Z,506.00
2023-03-17T22:47:33.196Z,505.00
2023-03-17T22:51:33.228Z,505.00
2023-03-17T22:55:33.426Z,507.00
2023-03-17T22:59:33.494Z,508.00
2023-03-17T23:03:33.650Z,507.00
2023-03-17T23:07:47.873Z,502.00
2023-03-17T23:11:34.773Z,505.00
2023-03-17T23:15:33.723Z,504.00
2023-03-17T23:19:33.584Z,502.00
2023-03-17T23:23:33.565Z,504.00
2023-03-17T23:27:34.108Z,507.00
2023-03-17T23:31:34.026Z,506.00
2023-03-17T23:35:33.931Z,507.00
2023-03-17T23:39:34.004Z,505.00
2023-03-17T23:43:34.138Z,506.00
2023-03-17T23:47:34.316Z,509.00
2023-03-17T23:51:34.330Z,505.00
2023-03-17T23:55:34.465Z,507.00
2023-03-17T23:59:34.588Z,506.00
